Springfork, Missouri
Current Conditions -  °F | °C
As of 7:53 PM on Wednesday 26 Nov 2014 (Local Time) from KDMO Reporting Station
Overcast Overcast  
Wind Chill: 21°   Ceiling: 1500
Heat Index: 33°   Visibility: 10mi
Dew Point: 27°   Wind: 21mph
Humidity: 78%   Direction: 310°NW
Pressure: 30.21"   Gusts: 25mph
Location:  38.6763°N, 93.2612°W
Report Text: KDMO 270153Z AUTO 31018G22KT 10SM OVC015 01/M03 A3021 RMK AO2 PK WND 31032/0110 SLP238 T00061028
Loading
Personal Weather Stations






























Interactive Weather Map New forecast layout! Learn more

10-Day Weather Forecast

Advertisements
Track Severe Weather on mobile